Time,TemperatureF,DewpointF,PressureIn,WindDirection,WindDirectionDegrees,WindSpeedMPH,WindSpeedGustMPH,Humidity,HourlyPrecipIn,Conditions,Clouds,dailyrainin,SolarRadiationWatts/m^2,SoftwareType,DateUTC
2013-10-28 00:03:00,53.6,48.6,29.67,WNW,282,11.0,11.5,83,0.00,,,0.00,0.0,WeatherDisplay:10.37,2013-10-28 07:03:00,
2013-10-28 00:08:00,53.6,48.6,29.67,West,266,20.8,24.2,83,0.00,,,0.00,0.0,WeatherDisplay:10.37,2013-10-28 07:08:00,
2013-10-28 00:13:00,53.5,48.5,29.68,West,281,17.1,18.4,83,0.00,,,0.00,0.0,WeatherDisplay:10.37,2013-10-28 07:13:00,
2013-10-28 00:18:00,53.5,48.5,29.68,WNW,287,13.7,20.7,83,0.00,,,0.00,0.0,WeatherDisplay:10.37,2013-10-28 07:18:00,
2013-10-28 00:23:00,53.4,48.7,29.67,West,273,16.3,23.0,84,0.00,,,0.00,0.0,WeatherDisplay:10.37,2013-10-28 07:23:00,
2013-10-28 00:28:00,53.3,48.6,29.67,West,266,16.9,24.2,84,0.00,,,0.00,0.0,WeatherDisplay:10.37,2013-10-28 07:28:00,
2013-10-28 00:33:00,53.2,48.5,29.67,West,272,13.9,18.4,84,0.00,,,0.00,0.0,WeatherDisplay:10.37,2013-10-28 07:33:00,
2013-10-28 00:38:00,53.1,48.4,29.67,WNW,300,17.1,26.5,84,0.00,,,0.00,0.0,WeatherDisplay:10.37,2013-10-28 07:38:00,
2013-10-28 00:43:00,53.0,48.3,29.67,WNW,289,15.4,26.5,84,0.00,,,0.00,0.0,WeatherDisplay:10.37,2013-10-28 07:43:00,
2013-10-28 00:48:00,53.0,48.6,29.66,WNW,283,15.9,20.7,85,0.00,,,0.00,0.0,WeatherDisplay:10.37,2013-10-28 07:48:00,
2013-10-28 00:53:00,52.9,48.5,29.67,West,267,17.4,26.5,85,0.00,,,0.00,0.0,WeatherDisplay:10.37,2013-10-28 07:53:00,
2013-10-28 00:58:00,52.8,48.7,29.66,WNW,289,13.0,19.6,86,0.00,,,0.00,0.0,WeatherDisplay:10.37,2013-10-28 07:58:00,
2013-10-28 01:03:00,52.8,48.4,29.67,West,266,13.6,18.4,85,0.00,,,0.00,0.0,WeatherDisplay:10.37,2013-10-28 08:03:00,
2013-10-28 01:08:00,52.7,48.3,29.67,West,263,12.0,15.0,85,0.00,,,0.00,0.0,WeatherDisplay:10.37,2013-10-28 08:08:00,
2013-10-28 01:13:00,52.7,48.3,29.67,WNW,298,10.7,15.0,85,0.00,,,0.00,0.0,WeatherDisplay:10.37,2013-10-28 08:13:00,
2013-10-28 01:18:00,52.6,48.2,29.67,WNW,303,7.1,11.5,85,0.00,,,0.00,0.0,WeatherDisplay:10.37,2013-10-28 08:18:00,
2013-10-28 01:23:00,52.6,48.2,29.67,NNW,347,7.0,23.0,85,0.00,,,0.00,0.0,WeatherDisplay:10.37,2013-10-28 08:23:00,
2013-10-28 01:28:00,52.5,48.1,29.66,NW,313,4.1,10.4,85,0.00,,,0.00,0.0,WeatherDisplay:10.37,2013-10-28 08:28:00,
2013-10-28 01:33:00,52.5,48.1,29.66,WNW,301,3.4,7.0,85,0.00,,,0.00,0.0,WeatherDisplay:10.37,2013-10-28 08:33:00,
2013-10-28 01:38:00,52.4,48.0,29.67,WNW,291,3.3,11.5,85,0.00,,,0.00,0.0,WeatherDisplay:10.37,2013-10-28 08:38:00,
2013-10-28 01:43:00,52.4,48.0,29.67,North,10,3.7,9.2,85,0.00,,,0.00,0.0,WeatherDisplay:10.37,2013-10-28 08:43:00,
2013-10-28 01:48:00,52.4,48.0,29.66,WNW,298,7.7,10.4,85,0.00,,,0.00,0.0,WeatherDisplay:10.37,2013-10-28 08:48:00,
2013-10-28 01:53:00,52.4,48.0,29.66,WSW,242,9.6,13.8,85,0.00,,,0.00,0.0,WeatherDisplay:10.37,2013-10-28 08:53:00,
2013-10-28 01:58:00,52.5,48.1,29.66,West,277,6.4,10.0,85,0.00,,,0.00,0.0,WeatherDisplay:10.37,2013-10-28 08:58:00,
2013-10-28 02:03:00,52.4,47.7,29.66,WNW,290,6.5,20.7,84,0.00,,,0.00,0.0,WeatherDisplay:10.37,2013-10-28 09:03:00,
2013-10-28 02:08:00,52.5,47.8,29.66,West,275,7.0,10.4,84,0.00,,,0.00,0.0,WeatherDisplay:10.37,2013-10-28 09:08:00,
2013-10-28 02:13:00,52.5,47.8,29.66,WNW,287,4.9,9.0,84,0.00,,,0.00,0.0,WeatherDisplay:10.37,2013-10-28 09:13:00,
2013-10-28 02:18:00,52.5,47.5,29.66,WNW,302,6.3,11.5,83,0.00,,,0.00,0.0,WeatherDisplay:10.37,2013-10-28 09:18:00,
2013-10-28 02:23:00,52.5,47.5,29.66,West,278,5.1,5.8,83,0.00,,,0.00,0.0,WeatherDisplay:10.37,2013-10-28 09:23:00,
2013-10-28 02:28:00,52.5,47.2,29.66,NNW,335,7.3,7.3,82,0.00,,,0.00,0.0,WeatherDisplay:10.37,2013-10-28 09:28:00,
2013-10-28 02:33:00,52.5,47.2,29.66,NW,319,3.5,11.5,82,0.00,,,0.00,0.0,WeatherDisplay:10.37,2013-10-28 09:33:00,
2013-10-28 02:38:00,52.6,46.9,29.66,WNW,294,3.3,8.1,81,0.00,,,0.00,0.0,WeatherDisplay:10.37,2013-10-28 09:38:00,
2013-10-28 02:43:00,52.7,46.7,29.67,NW,304,7.6,13.0,80,0.00,,,0.00,0.0,WeatherDisplay:10.37,2013-10-28 09:43:00,
2013-10-28 02:48:00,52.8,46.8,29.67,WNW,298,4.0,4.6,80,0.00,,,0.00,0.0,WeatherDisplay:10.37,2013-10-28 09:48:00,
2013-10-28 02:53:00,52.9,46.6,29.67,West,281,6.4,11.5,79,0.00,,,0.00,0.0,WeatherDisplay:10.37,2013-10-28 09:53:00,
2013-10-28 02:58:00,52.9,46.6,29.67,WNW,286,1.9,6.9,79,0.00,,,0.00,0.0,WeatherDisplay:10.37,2013-10-28 09:58:00,
2013-10-28 03:03:00,53.0,46.7,29.67,West,275,1.1,11.5,79,0.00,,,0.00,0.0,WeatherDisplay:10.37,2013-10-28 10:03:00,
2013-10-28 03:08:00,52.9,46.6,29.66,NW,310,2.9,6.0,79,0.00,,,0.00,0.0,WeatherDisplay:10.37,2013-10-28 10:08:00,
2013-10-28 03:14:00,52.8,46.5,29.66,West,278,1.6,6.9,79,0.00,,,0.00,0.0,WeatherDisplay:10.37,2013-10-28 10:14:00,
2013-10-28 03:19:00,52.8,46.5,29.67,WNW,291,1.2,3.5,79,0.00,,,0.00,0.0,WeatherDisplay:10.37,2013-10-28 10:19:00,
2013-10-28 03:24:00,52.8,46.5,29.67,West,276,1.2,5.8,79,0.00,,,0.00,0.0,WeatherDisplay:10.37,2013-10-28 10:24:00,
2013-10-28 03:29:00,52.8,46.8,29.67,West,264,3.2,5.8,80,0.00,,,0.00,0.0,WeatherDisplay:10.37,2013-10-28 10:29:00,
2013-10-28 03:34:00,52.8,46.8,29.67,SW,232,1.5,4.6,80,0.00,,,0.00,0.0,WeatherDisplay:10.37,2013-10-28 10:34:00,
2013-10-28 03:39:00,52.9,46.9,29.67,WNW,300,1.9,7.0,80,0.00,,,0.00,0.0,WeatherDisplay:10.37,2013-10-28 10:39:00,
2013-10-28 03:44:00,52.9,47.2,29.67,West,259,2.4,9.0,81,0.00,,,0.00,0.0,WeatherDisplay:10.37,2013-10-28 10:44:00,
2013-10-28 03:49:00,52.8,47.1,29.67,WNW,296,0.4,3.5,81,0.00,,,0.00,0.0,WeatherDisplay:10.37,2013-10-28 10:49:00,
2013-10-28 03:54:00,52.8,47.1,29.67,NNW,346,1.2,3.5,81,0.00,,,0.00,0.0,WeatherDisplay:10.37,2013-10-28 10:54:00,
2013-10-28 03:59:00,52.7,47.4,29.66,WNW,299,5.1,11.5,82,0.00,,,0.00,0.0,WeatherDisplay:10.37,2013-10-28 10:59:00,
2013-10-28 04:04:00,52.8,47.5,29.66,West,279,5.5,10.4,82,0.00,,,0.00,0.0,WeatherDisplay:10.37,2013-10-28 11:04:00,
2013-10-28 04:09:00,52.8,47.1,29.66,WNW,294,1.7,6.9,81,0.00,,,0.00,0.0,WeatherDisplay:10.37,2013-10-28 11:09:00,
2013-10-28 04:14:00,52.8,47.1,29.66,West,276,3.2,9.2,81,0.00,,,0.00,0.0,WeatherDisplay:10.37,2013-10-28 11:14:00,
2013-10-28 04:19:00,52.9,47.2,29.66,WNW,298,1.9,6.0,81,0.00,,,0.00,0.0,WeatherDisplay:10.37,2013-10-28 11:19:00,
2013-10-28 04:24:00,52.9,47.2,29.66,WNW,296,1.1,3.5,81,0.00,,,0.00,0.0,WeatherDisplay:10.37,2013-10-28 11:24:00,
2013-10-28 04:29:00,52.9,47.2,29.66,WNW,298,4.4,6.9,81,0.00,,,0.00,0.0,WeatherDisplay:10.37,2013-10-28 11:29:00,
2013-10-28 04:34:00,52.9,47.6,29.66,West,267,2.2,3.5,82,0.00,,,0.00,0.0,WeatherDisplay:10.37,2013-10-28 11:34:00,
2013-10-28 04:39:00,52.8,47.5,29.66,West,267,4.4,9.2,82,0.00,,,0.00,0.0,WeatherDisplay:10.37,2013-10-28 11:39:00,
2013-10-28 04:44:00,52.7,47.4,29.66,West,260,1.8,3.5,82,0.00,,,0.00,0.0,WeatherDisplay:10.37,2013-10-28 11:44:00,
2013-10-28 04:49:00,52.7,47.7,29.66,West,269,1.4,4.6,83,0.00,,,0.00,0.0,WeatherDisplay:10.37,2013-10-28 11:49:00,
2013-10-28 04:54:00,52.6,47.6,29.66,WNW,302,2.6,4.6,83,0.00,,,0.00,0.0,WeatherDisplay:10.37,2013-10-28 11:54:00,
2013-10-28 04:59:00,52.6,47.9,29.66,NW,307,2.4,6.9,84,0.00,,,0.00,0.0,WeatherDisplay:10.37,2013-10-28 11:59:00,
2013-10-28 05:04:00,52.6,48.2,29.66,West,274,5.2,9.2,85,0.00,,,0.00,0.0,WeatherDisplay:10.37,2013-10-28 12:04:00,
2013-10-28 05:09:00,52.6,48.2,29.66,West,275,2.7,6.9,85,0.00,,,0.00,0.0,WeatherDisplay:10.37,2013-10-28 12:09:00,
2013-10-28 05:14:00,52.5,48.4,29.66,West,262,6.2,12.7,86,0.00,,,0.00,0.0,WeatherDisplay:10.37,2013-10-28 12:14:00,
2013-10-28 05:19:00,52.4,48.6,29.66,West,274,3.5,9.2,87,0.00,,,0.00,0.0,WeatherDisplay:10.37,2013-10-28 12:19:00,
2013-10-28 05:24:00,52.3,48.5,29.66,WNW,294,2.8,10.4,87,0.00,,,0.00,0.0,WeatherDisplay:10.37,2013-10-28 12:24:00,
2013-10-28 05:29:00,52.2,48.4,29.66,WNW,298,4.9,9.2,87,0.00,,,0.00,0.0,WeatherDisplay:10.37,2013-10-28 12:29:00,
2013-10-28 05:34:00,52.2,48.4,29.66,West,269,8.5,12.7,87,0.00,,,0.00,0.0,WeatherDisplay:10.37,2013-10-28 12:34:00,
2013-10-28 05:39:00,52.1,48.7,29.66,WSW,255,7.3,11.5,88,0.00,,,0.00,0.0,WeatherDisplay:10.37,2013-10-28 12:39:00,
2013-10-28 05:44:00,52.1,48.7,29.66,West,281,1.7,5.8,88,0.00,,,0.00,0.0,WeatherDisplay:10.37,2013-10-28 12:44:00,
2013-10-28 05:49:00,52.0,48.6,29.66,WNW,290,2.6,5.8,88,0.00,,,0.00,0.0,WeatherDisplay:10.37,2013-10-28 12:49:00,
2013-10-28 05:54:00,52.0,48.6,29.66,West,278,5.6,9.2,88,0.00,,,0.00,0.0,WeatherDisplay:10.37,2013-10-28 12:54:00,
2013-10-28 05:59:00,52.0,48.6,29.66,West,277,4.5,6.9,88,0.00,,,0.00,0.0,WeatherDisplay:10.37,2013-10-28 12:59:00,
2013-10-28 06:04:00,51.9,48.5,29.66,WNW,300,4.0,10.4,88,0.00,,,0.00,0.0,WeatherDisplay:10.37,2013-10-28 13:04:00,
2013-10-28 06:09:00,51.9,48.5,29.66,WNW,286,2.9,8.1,88,0.00,,,0.00,0.0,WeatherDisplay:10.37,2013-10-28 13:09:00,
2013-10-28 06:14:00,51.8,48.4,29.66,NNW,327,2.5,5.8,88,0.00,,,0.00,0.0,WeatherDisplay:10.37,2013-10-28 13:14:00,
2013-10-28 06:19:00,51.8,48.4,29.66,WNW,302,1.3,4.6,88,0.00,,,0.00,0.0,WeatherDisplay:10.37,2013-10-28 13:19:00,
2013-10-28 06:24:00,51.8,48.4,29.67,NW,308,1.3,3.0,88,0.00,,,0.00,0.0,WeatherDisplay:10.37,2013-10-28 13:24:00,
2013-10-28 06:29:00,51.7,48.0,29.67,NW,314,1.3,3.5,87,0.00,,,0.00,0.0,WeatherDisplay:10.37,2013-10-28 13:29:00,
2013-10-28 06:34:00,51.7,48.0,29.66,WNW,294,1.8,6.9,87,0.00,,,0.00,0.0,WeatherDisplay:10.37,2013-10-28 13:34:00,
2013-10-28 06:39:00,51.7,48.0,29.66,WNW,292,1.0,4.0,87,0.00,,,0.00,0.0,WeatherDisplay:10.37,2013-10-28 13:39:00,
2013-10-28 06:44:00,51.7,48.0,29.66,NW,309,0.0,0.0,87,0.00,,,0.00,0.0,WeatherDisplay:10.37,2013-10-28 13:44:00,
2013-10-28 06:49:00,51.6,48.2,29.66,West,279,0.0,0.0,88,0.00,,,0.00,0.0,WeatherDisplay:10.37,2013-10-28 13:49:00,
2013-10-28 06:54:00,51.6,47.9,29.66,West,278,0.0,0.0,87,0.00,,,0.00,0.0,WeatherDisplay:10.37,2013-10-28 13:54:00,
2013-10-28 06:59:00,51.5,47.8,29.67,WNW,289,0.0,0.0,87,0.00,,,0.00,0.0,WeatherDisplay:10.37,2013-10-28 13:59:00,
2013-10-28 07:04:00,51.5,48.1,29.67,West,267,0.0,0.0,88,0.00,,,0.00,0.0,WeatherDisplay:10.37,2013-10-28 14:04:00,
2013-10-28 07:09:00,51.4,47.7,29.67,West,264,0.0,0.0,87,0.00,,,0.00,0.0,WeatherDisplay:10.37,2013-10-28 14:09:00,
2013-10-28 07:14:00,51.4,48.0,29.67,NW,306,1.9,5.0,88,0.00,CLR,,0.00,0.0,WeatherDisplay:10.37,2013-10-28 14:14:00,
2013-10-28 07:19:00,51.5,48.1,29.67,West,260,2.3,5.0,88,0.00,CLR,,0.00,0.0,WeatherDisplay:10.37,2013-10-28 14:19:00,
2013-10-28 07:24:00,51.4,48.0,29.67,West,267,1.4,4.0,88,0.00,CLR,,0.00,0.0,WeatherDisplay:10.37,2013-10-28 14:24:00,
2013-10-28 07:29:00,51.4,48.0,29.67,WNW,300,3.4,6.9,88,0.00,CLR,,0.00,0.0,WeatherDisplay:10.37,2013-10-28 14:29:00,
2013-10-28 07:34:00,51.4,48.0,29.66,West,280,3.2,5.8,88,0.00,CLR,,0.00,5.0,WeatherDisplay:10.37,2013-10-28 14:34:00,
2013-10-28 07:39:00,51.4,48.0,29.67,WNW,286,3.8,5.8,88,0.00,CLR,,0.00,5.0,WeatherDisplay:10.37,2013-10-28 14:39:00,
2013-10-28 07:44:00,51.4,48.0,29.67,West,273,2.5,4.6,88,0.00,CLR,,0.00,9.0,WeatherDisplay:10.37,2013-10-28 14:44:00,
2013-10-28 07:49:00,51.4,47.7,29.67,West,274,0.0,0.0,87,0.00,CLR,,0.00,12.0,WeatherDisplay:10.37,2013-10-28 14:49:00,
2013-10-28 07:54:00,51.4,47.7,29.67,West,274,0.0,0.0,87,0.00,CLR,,0.00,16.0,WeatherDisplay:10.37,2013-10-28 14:54:00,
2013-10-28 07:59:00,51.4,47.7,29.68,West,267,1.2,3.5,87,0.00,CLR,,0.00,46.0,WeatherDisplay:10.37,2013-10-28 14:59:00,
2013-10-28 08:04:00,51.5,47.8,29.68,West,267,0.1,2.3,87,0.00,CLR,,0.00,67.0,WeatherDisplay:10.37,2013-10-28 15:04:00,
2013-10-28 08:09:00,51.5,47.8,29.68,West,267,1.9,3.5,87,0.00,CLR,,0.00,79.0,WeatherDisplay:10.37,2013-10-28 15:09:00,
2013-10-28 08:14:00,51.7,48.0,29.68,WSW,254,2.2,4.6,87,0.00,CLR,,0.00,93.0,WeatherDisplay:10.37,2013-10-28 15:14:00,
2013-10-28 08:19:00,51.9,47.8,29.69,WSW,239,3.0,5.8,86,0.00,CLR,,0.00,107.0,WeatherDisplay:10.37,2013-10-28 15:19:00,
2013-10-28 08:24:00,52.1,48.0,29.69,WSW,255,2.5,3.5,86,0.00,CLR,,0.00,118.0,WeatherDisplay:10.37,2013-10-28 15:24:00,
2013-10-28 08:29:00,52.4,48.3,29.69,WSW,239,1.5,3.5,86,0.00,CLR,,0.00,130.0,WeatherDisplay:10.37,2013-10-28 15:29:00,
2013-10-28 08:34:00,52.7,48.3,29.69,WSW,240,1.3,3.5,85,0.00,CLR,,0.00,148.0,WeatherDisplay:10.37,2013-10-28 15:34:00,
2013-10-28 08:39:00,52.7,47.7,29.69,WNW,291,4.8,10.4,83,0.00,CLR,,0.00,160.0,WeatherDisplay:10.37,2013-10-28 15:39:00,
2013-10-28 08:44:00,52.9,47.9,29.69,West,279,4.8,6.9,83,0.00,CLR,,0.00,174.0,WeatherDisplay:10.37,2013-10-28 15:44:00,
2013-10-28 08:49:00,53.1,47.7,29.70,West,281,4.6,5.8,82,0.00,CLR,,0.00,188.0,WeatherDisplay:10.37,2013-10-28 15:49:00,
2013-10-28 08:54:00,53.3,48.3,29.70,SSW,210,1.5,5.8,83,0.00,CLR,,0.00,200.0,WeatherDisplay:10.37,2013-10-28 15:54:00,
2013-10-28 08:59:00,54.0,49.3,29.70,SSW,210,2.2,3.5,84,0.00,CLR,,0.00,211.0,WeatherDisplay:10.37,2013-10-28 15:59:00,
2013-10-28 09:05:00,54.4,49.3,29.70,SSW,210,1.0,3.5,83,0.00,CLR,,0.00,229.0,WeatherDisplay:10.37,2013-10-28 16:05:00,
2013-10-28 09:10:00,54.7,49.3,29.70,SW,227,4.8,10.4,82,0.00,CLR,,0.00,241.0,WeatherDisplay:10.37,2013-10-28 16:10:00,
2013-10-28 09:15:00,54.7,49.3,29.70,WSW,245,4.0,8.1,82,0.00,CLR,,0.00,257.0,WeatherDisplay:10.37,2013-10-28 16:15:00,
2013-10-28 09:20:00,54.6,49.2,29.70,West,267,3.3,3.5,82,0.00,CLR,,0.00,271.0,WeatherDisplay:10.37,2013-10-28 16:20:00,
2013-10-28 09:25:00,54.5,49.1,29.70,WSW,239,3.3,6.9,82,0.00,CLR,,0.00,281.0,WeatherDisplay:10.37,2013-10-28 16:25:00,
2013-10-28 09:30:00,54.6,49.2,29.71,WSW,250,2.0,5.0,82,0.00,CLR,,0.00,295.0,WeatherDisplay:10.37,2013-10-28 16:30:00,
2013-10-28 09:35:00,54.8,49.4,29.71,WSW,254,1.7,4.0,82,0.00,CLR,,0.00,306.0,WeatherDisplay:10.37,2013-10-28 16:35:00,
2013-10-28 09:40:00,54.9,49.2,29.71,WSW,239,4.7,10.4,81,0.00,CLR,,0.00,320.0,WeatherDisplay:10.37,2013-10-28 16:40:00,
2013-10-28 09:45:00,55.2,49.1,29.70,WSW,244,6.0,11.5,80,0.00,CLR,,0.00,330.0,WeatherDisplay:10.37,2013-10-28 16:45:00,
2013-10-28 09:50:00,55.2,48.8,29.71,WSW,252,4.4,6.9,79,0.00,CLR,,0.00,346.0,WeatherDisplay:10.37,2013-10-28 16:50:00,
2013-10-28 09:55:00,55.2,48.8,29.71,WSW,239,5.9,9.2,79,0.00,CLR,,0.00,357.0,WeatherDisplay:10.37,2013-10-28 16:55:00,
2013-10-28 10:00:00,55.3,48.9,29.71,North,10,5.3,8.1,79,0.00,CLR,,0.00,366.0,WeatherDisplay:10.37,2013-10-28 17:00:00,
2013-10-28 10:05:00,55.4,48.7,29.71,WSW,258,5.3,11.5,78,0.00,CLR,,0.00,380.0,WeatherDisplay:10.37,2013-10-28 17:05:00,
2013-10-28 10:10:00,55.3,48.2,29.71,WSW,240,4.4,6.9,77,0.00,CLR,,0.00,390.0,WeatherDisplay:10.37,2013-10-28 17:10:00,
2013-10-28 10:15:00,55.5,48.1,29.71,WSW,249,7.0,12.0,76,0.00,CLR,,0.00,397.0,WeatherDisplay:10.37,2013-10-28 17:15:00,
2013-10-28 10:20:00,56.0,48.2,29.71,WSW,246,8.9,11.5,75,0.00,CLR,,0.00,411.0,WeatherDisplay:10.37,2013-10-28 17:20:00,
2013-10-28 10:25:00,56.1,47.5,29.71,WSW,254,6.0,10.0,73,0.00,CLR,,0.00,417.0,WeatherDisplay:10.37,2013-10-28 17:25:00,
2013-10-28 10:30:00,56.0,47.1,29.71,West,271,4.8,6.9,72,0.00,CLR,,0.00,431.0,WeatherDisplay:10.37,2013-10-28 17:30:00,
2013-10-28 10:35:00,56.1,47.2,29.71,SW,219,5.9,6.0,72,0.00,CLR,,0.00,439.0,WeatherDisplay:10.37,2013-10-28 17:35:00,
2013-10-28 10:40:00,56.4,47.5,29.71,WSW,240,8.6,11.5,72,0.00,CLR,,0.00,446.0,WeatherDisplay:10.37,2013-10-28 17:40:00,
2013-10-28 10:45:00,56.6,48.0,29.71,WNW,286,5.7,10.0,73,0.00,CLR,,0.00,454.0,WeatherDisplay:10.37,2013-10-28 17:45:00,
2013-10-28 10:50:00,56.4,48.6,29.71,SW,236,3.5,6.9,75,0.00,CLR,,0.00,454.0,WeatherDisplay:10.37,2013-10-28 17:50:00,
2013-10-28 10:55:00,56.3,48.1,29.71,West,270,6.0,12.0,74,0.00,CLR,,0.00,473.0,WeatherDisplay:10.37,2013-10-28 17:55:00,
2013-10-28 11:00:00,56.1,48.6,29.72,WNW,294,3.1,6.9,76,0.00,CLR,,0.00,480.0,WeatherDisplay:10.37,2013-10-28 18:00:00,
2013-10-28 11:05:00,56.1,48.3,29.72,NW,306,5.0,10.0,75,0.00,CLR,,0.00,487.0,WeatherDisplay:10.37,2013-10-28 18:05:00,
2013-10-28 11:10:00,56.0,48.2,29.71,West,281,6.3,10.4,75,0.00,CLR,,0.00,490.0,WeatherDisplay:10.37,2013-10-28 18:10:00,
2013-10-28 11:15:00,56.0,48.9,29.72,WNW,288,5.0,9.0,77,0.00,CLR,,0.00,501.0,WeatherDisplay:10.37,2013-10-28 18:15:00,
2013-10-28 11:20:00,56.3,49.2,29.72,WNW,283,4.3,9.2,77,0.00,CLR,,0.00,515.0,WeatherDisplay:10.37,2013-10-28 18:20:00,
2013-10-28 11:25:00,56.4,49.3,29.72,NW,305,2.0,9.0,77,0.00,CLR,,0.00,520.0,WeatherDisplay:10.37,2013-10-28 18:25:00,
2013-10-28 11:30:00,56.7,49.2,29.72,WNW,302,2.1,3.5,76,0.00,CLR,,0.00,526.0,WeatherDisplay:10.37,2013-10-28 18:30:00,
2013-10-28 11:35:00,56.8,49.0,29.72,WNW,293,3.0,13.0,75,0.00,CLR,,0.00,547.0,WeatherDisplay:10.37,2013-10-28 18:35:00,
2013-10-28 11:40:00,56.8,49.0,29.72,West,270,7.0,11.5,75,0.00,CLR,,0.00,534.0,WeatherDisplay:10.37,2013-10-28 18:40:00,
2013-10-28 11:45:00,56.6,47.7,29.72,West,275,8.0,12.0,72,0.00,CLR,,0.00,540.0,WeatherDisplay:10.37,2013-10-28 18:45:00,
2013-10-28 11:50:00,56.6,47.7,29.72,West,273,3.0,4.6,72,0.00,CLR,,0.00,545.0,WeatherDisplay:10.37,2013-10-28 18:50:00,
2013-10-28 11:55:00,57.2,47.5,29.72,West,278,3.8,5.8,70,0.00,CLR,,0.00,547.0,WeatherDisplay:10.37,2013-10-28 18:55:00,
2013-10-28 12:00:00,57.7,47.6,29.71,West,280,5.5,11.5,69,0.00,CLR,,0.00,554.0,WeatherDisplay:10.37,2013-10-28 19:00:00,
2013-10-28 12:05:00,58.2,48.1,29.71,WSW,257,8.0,12.0,69,0.00,CLR,,0.00,554.0,WeatherDisplay:10.37,2013-10-28 19:05:00,
2013-10-28 12:10:00,58.8,48.6,29.71,West,279,4.1,5.8,69,0.00,CLR,,0.00,550.0,WeatherDisplay:10.37,2013-10-28 19:10:00,
2013-10-28 12:15:00,58.4,48.3,29.71,WNW,289,6.0,15.0,69,0.00,CLR,,0.00,555.0,WeatherDisplay:10.37,2013-10-28 19:15:00,
2013-10-28 12:20:00,58.3,48.9,29.71,WNW,285,5.6,10.4,71,0.00,CLR,,0.00,564.0,WeatherDisplay:10.37,2013-10-28 19:20:00,
2013-10-28 12:25:00,58.2,49.2,29.71,SW,217,6.7,11.5,72,0.00,CLR,,0.00,578.0,WeatherDisplay:10.37,2013-10-28 19:25:00,
2013-10-28 12:30:00,58.4,49.4,29.71,West,262,9.0,13.8,72,0.00,CLR,,0.00,554.0,WeatherDisplay:10.37,2013-10-28 19:30:00,
2013-10-28 12:35:00,58.0,49.0,29.71,WSW,256,8.0,17.0,72,0.00,CLR,,0.00,552.0,WeatherDisplay:10.37,2013-10-28 19:35:00,
2013-10-28 12:40:00,57.8,49.2,29.71,WSW,237,7.2,13.0,73,0.00,CLR,,0.00,564.0,WeatherDisplay:10.37,2013-10-28 19:40:00,
2013-10-28 12:45:00,57.9,49.7,29.71,SW,236,7.0,16.0,74,0.00,CLR,,0.00,557.0,WeatherDisplay:10.37,2013-10-28 19:45:00,
2013-10-28 12:50:00,57.9,49.3,29.71,WSW,246,7.2,12.7,73,0.00,CLR,,0.00,568.0,WeatherDisplay:10.37,2013-10-28 19:50:00,
2013-10-28 12:55:00,58.0,49.0,29.71,WNW,292,4.3,11.5,72,0.00,FEW,,0.00,534.0,WeatherDisplay:10.37,2013-10-28 19:55:00,
2013-10-28 13:00:00,58.2,48.8,29.71,WSW,240,6.5,15.0,71,0.00,CLR,,0.00,570.0,WeatherDisplay:10.37,2013-10-28 20:00:00,
2013-10-28 13:05:00,58.3,48.9,29.71,West,262,7.0,17.0,71,0.00,FEW,,0.00,473.0,WeatherDisplay:10.37,2013-10-28 20:05:00,
2013-10-28 13:10:00,58.2,49.6,29.71,West,280,8.8,15.0,73,0.00,CLR,,0.00,529.0,WeatherDisplay:10.37,2013-10-28 20:10:00,
2013-10-28 13:15:00,58.0,49.4,29.71,North,10,10.4,15.0,73,0.00,CLR,,0.00,550.0,WeatherDisplay:10.37,2013-10-28 20:15:00,
2013-10-28 13:20:00,57.9,49.3,29.71,West,271,7.2,11.5,73,0.00,CLR,,0.00,543.0,WeatherDisplay:10.37,2013-10-28 20:20:00,
2013-10-28 13:25:00,57.8,49.2,29.70,WSW,248,13.0,17.0,73,0.00,CLR,,0.00,550.0,WeatherDisplay:10.37,2013-10-28 20:25:00,
2013-10-28 13:30:00,57.9,49.7,29.70,SW,232,5.4,16.0,74,0.00,CLR,,0.00,547.0,WeatherDisplay:10.37,2013-10-28 20:30:00,
2013-10-28 13:35:00,58.0,49.8,29.70,WSW,239,6.9,17.0,74,0.00,CLR,,0.00,540.0,WeatherDisplay:10.37,2013-10-28 20:35:00,
2013-10-28 13:40:00,57.9,49.3,29.70,North,10,9.6,13.8,73,0.00,CLR,,0.00,538.0,WeatherDisplay:10.37,2013-10-28 20:40:00,
2013-10-28 13:45:00,57.5,49.3,29.70,SW,217,7.2,11.5,74,0.00,CLR,,0.00,533.0,WeatherDisplay:10.37,2013-10-28 20:45:00,
2013-10-28 13:50:00,57.7,49.5,29.70,WNW,296,3.5,4.6,74,0.00,FEW,,0.00,524.0,WeatherDisplay:10.37,2013-10-28 20:50:00,
2013-10-28 13:55:00,57.8,49.2,29.70,SW,236,7.5,11.5,73,0.00,FEW,,0.00,519.0,WeatherDisplay:10.37,2013-10-28 20:55:00,
2013-10-28 14:00:00,58.0,49.8,29.70,SW,233,10.3,13.8,74,0.00,FEW,,0.00,517.0,WeatherDisplay:10.37,2013-10-28 21:00:00,
2013-10-28 14:05:00,58.5,49.9,29.70,WSW,240,4.0,17.0,73,0.00,FEW,,0.00,504.0,WeatherDisplay:10.37,2013-10-28 21:05:00,
2013-10-28 14:10:00,58.5,49.5,29.69,SW,224,7.8,16.1,72,0.00,FEW,,0.00,503.0,WeatherDisplay:10.37,2013-10-28 21:10:00,
2013-10-28 14:15:00,58.6,49.2,29.70,SW,226,7.5,12.7,71,0.00,FEW,,0.00,497.0,WeatherDisplay:10.37,2013-10-28 21:15:00,
2013-10-28 14:20:00,58.8,49.4,29.70,NNW,335,9.9,16.1,71,0.00,FEW,,0.00,483.0,WeatherDisplay:10.37,2013-10-28 21:20:00,
2013-10-28 14:25:00,58.3,49.7,29.70,WSW,254,3.4,6.9,73,0.00,FEW,,0.00,478.0,WeatherDisplay:10.37,2013-10-28 21:25:00,
2013-10-28 14:30:00,58.5,49.1,29.70,West,271,14.3,19.6,71,0.00,FEW,,0.00,480.0,WeatherDisplay:10.37,2013-10-28 21:30:00,
2013-10-28 14:35:00,58.5,49.1,29.70,NW,307,8.4,16.1,71,0.00,FEW,,0.00,466.0,WeatherDisplay:10.37,2013-10-28 21:35:00,
2013-10-28 14:40:00,58.3,48.9,29.70,North,10,9.3,16.1,71,0.00,FEW,,0.00,455.0,WeatherDisplay:10.37,2013-10-28 21:40:00,
2013-10-28 14:45:00,58.2,48.8,29.70,West,265,5.6,9.2,71,0.00,FEW,,0.00,448.0,WeatherDisplay:10.37,2013-10-28 21:45:00,
2013-10-28 14:50:00,58.2,49.2,29.70,NNW,343,10.6,17.3,72,0.00,FEW,,0.00,443.0,WeatherDisplay:10.37,2013-10-28 21:50:00,
2013-10-28 14:55:00,58.2,49.6,29.70,WSW,239,10.4,16.1,73,0.00,SCT,,0.00,424.0,WeatherDisplay:10.37,2013-10-28 21:55:00,
2013-10-28 15:00:00,58.1,49.5,29.70,SW,232,8.1,17.3,73,0.00,SCT,,0.00,425.0,WeatherDisplay:10.37,2013-10-28 22:00:00,
2013-10-28 15:05:00,58.0,49.4,29.70,WSW,249,9.2,15.0,73,0.00,SCT,,0.00,406.0,WeatherDisplay:10.37,2013-10-28 22:05:00,
2013-10-28 15:10:00,58.0,49.4,29.70,SW,219,13.1,19.6,73,0.00,SCT,,0.00,399.0,WeatherDisplay:10.37,2013-10-28 22:10:00,
2013-10-28 15:15:00,58.1,49.5,29.70,SSW,206,12.0,17.3,73,0.00,SCT,,0.00,388.0,WeatherDisplay:10.37,2013-10-28 22:15:00,
2013-10-28 15:20:00,57.9,49.7,29.70,WSW,252,13.1,19.6,74,0.00,SCT,,0.00,385.0,WeatherDisplay:10.37,2013-10-28 22:20:00,
2013-10-28 15:25:00,57.8,49.6,29.70,WSW,244,10.2,17.0,74,0.00,SCT,,0.00,376.0,WeatherDisplay:10.37,2013-10-28 22:25:00,
2013-10-28 15:30:00,57.6,49.7,29.70,WSW,243,9.6,16.1,75,0.00,SCT,,0.00,367.0,WeatherDisplay:10.37,2013-10-28 22:30:00,
2013-10-28 15:35:00,57.7,49.8,29.70,WSW,237,11.6,19.6,75,0.00,SCT,,0.00,355.0,WeatherDisplay:10.37,2013-10-28 22:35:00,
2013-10-28 15:40:00,57.5,49.6,29.70,WNW,282,9.2,14.0,75,0.00,SCT,,0.00,348.0,WeatherDisplay:10.37,2013-10-28 22:40:00,
2013-10-28 15:45:00,57.5,50.0,29.70,West,277,10.3,12.7,76,0.00,BKN,,0.00,243.0,WeatherDisplay:10.37,2013-10-28 22:45:00,
2013-10-28 15:50:00,57.5,50.0,29.70,West,277,4.9,17.3,76,0.00,SCT,,0.00,315.0,WeatherDisplay:10.37,2013-10-28 22:50:00,
2013-10-28 15:55:00,57.6,50.1,29.70,WSW,247,8.8,13.8,76,0.00,SCT,,0.00,299.0,WeatherDisplay:10.37,2013-10-28 22:55:00,
2013-10-28 16:00:00,57.4,49.9,29.70,West,259,4.5,11.5,76,0.00,SCT,,0.00,290.0,WeatherDisplay:10.37,2013-10-28 23:00:00,
2013-10-28 16:05:00,57.2,49.7,29.70,West,264,8.4,13.0,76,0.00,SCT,,0.00,272.0,WeatherDisplay:10.37,2013-10-28 23:05:00,
2013-10-28 16:10:00,57.2,50.1,29.70,WNW,287,8.7,16.1,77,0.00,SCT,,0.00,267.0,WeatherDisplay:10.37,2013-10-28 23:10:00,
2013-10-28 16:15:00,57.3,50.1,29.71,WSW,248,6.5,12.7,77,0.00,SCT,,0.00,257.0,WeatherDisplay:10.37,2013-10-28 23:15:00,
2013-10-28 16:20:00,57.1,50.0,29.71,WSW,247,7.8,15.0,77,0.00,SCT,,0.00,243.0,WeatherDisplay:10.37,2013-10-28 23:20:00,
2013-10-28 16:25:00,57.2,50.1,29.71,North,10,11.1,21.9,77,0.00,SCT,,0.00,229.0,WeatherDisplay:10.37,2013-10-28 23:25:00,
2013-10-28 16:30:00,56.9,49.8,29.71,WNW,298,11.4,18.4,77,0.00,BKN,,0.00,214.0,WeatherDisplay:10.37,2013-10-28 23:30:00,
2013-10-28 16:35:00,56.8,50.0,29.71,SSW,196,7.1,16.1,78,0.00,SCT,,0.00,202.0,WeatherDisplay:10.37,2013-10-28 23:35:00,
2013-10-28 16:40:00,56.9,50.5,29.71,WSW,254,9.7,13.8,79,0.00,BKN,,0.00,192.0,WeatherDisplay:10.37,2013-10-28 23:40:00,
2013-10-28 16:45:00,57.0,50.5,29.71,North,10,8.8,18.4,79,0.00,BKN,,0.00,185.0,WeatherDisplay:10.37,2013-10-28 23:45:00,
2013-10-28 16:50:00,57.0,50.5,29.71,SW,232,6.7,11.5,79,0.00,BKN,,0.00,128.0,WeatherDisplay:10.37,2013-10-28 23:50:00,
2013-10-28 16:55:00,56.8,50.4,29.71,SW,217,8.7,16.1,79,0.00,BKN,,0.00,67.0,WeatherDisplay:10.37,2013-10-28 23:55:00,
2013-10-28 17:00:00,56.6,50.5,29.71,WSW,244,4.9,12.7,80,0.00,BKN,,0.00,109.0,WeatherDisplay:10.37,2013-10-29 00:00:00,
2013-10-28 17:05:00,56.5,50.4,29.72,SW,235,6.4,12.7,80,0.00,BKN,,0.00,113.0,WeatherDisplay:10.37,2013-10-29 00:05:00,
2013-10-28 17:10:00,56.4,50.3,29.71,WNW,283,9.4,15.0,80,0.00,BKN,,0.00,102.0,WeatherDisplay:10.37,2013-10-29 00:10:00,
2013-10-28 17:15:00,56.1,50.3,29.72,WSW,248,7.8,15.0,81,0.00,BKN,,0.00,39.0,WeatherDisplay:10.37,2013-10-29 00:15:00,
2013-10-28 17:20:00,55.9,50.2,29.72,North,10,8.2,12.7,81,0.00,BKN,,0.00,37.0,WeatherDisplay:10.37,2013-10-29 00:20:00,
2013-10-28 17:25:00,55.7,50.3,29.72,WNW,293,7.5,9.2,82,0.00,BKN,,0.00,33.0,WeatherDisplay:10.37,2013-10-29 00:25:00,
2013-10-28 17:30:00,55.6,50.5,29.72,WSW,246,9.7,15.0,83,0.00,,,0.00,28.0,WeatherDisplay:10.37,2013-10-29 00:30:00,
2013-10-28 17:35:00,55.4,50.6,29.72,North,10,8.4,16.1,84,0.00,,,0.00,25.0,WeatherDisplay:10.37,2013-10-29 00:35:00,
2013-10-28 17:40:00,55.2,50.4,29.72,West,269,6.8,11.5,84,0.00,,,0.00,21.0,WeatherDisplay:10.37,2013-10-29 00:40:00,
2013-10-28 17:45:00,55.2,50.4,29.73,WSW,241,6.4,10.4,84,0.00,,,0.00,19.0,WeatherDisplay:10.37,2013-10-29 00:45:00,
2013-10-28 17:50:00,55.1,50.7,29.73,WSW,246,6.8,11.5,85,0.00,,,0.00,16.0,WeatherDisplay:10.37,2013-10-29 00:50:00,
2013-10-28 17:55:00,55.0,50.6,29.73,WSW,247,8.2,12.7,85,0.00,,,0.00,12.0,WeatherDisplay:10.37,2013-10-29 00:55:00,
2013-10-28 18:00:00,55.0,50.6,29.73,SW,233,9.2,13.8,85,0.00,,,0.00,11.0,WeatherDisplay:10.37,2013-10-29 01:00:00,
2013-10-28 18:05:00,54.9,50.5,29.73,WSW,254,7.5,13.8,85,0.00,,,0.00,9.0,WeatherDisplay:10.37,2013-10-29 01:05:00,
2013-10-28 18:10:00,54.9,50.8,29.73,WSW,242,10.9,13.8,86,0.00,,,0.00,5.0,WeatherDisplay:10.37,2013-10-29 01:10:00,
2013-10-28 18:15:00,54.9,50.8,29.73,SW,236,8.2,11.5,86,0.00,,,0.00,0.0,WeatherDisplay:10.37,2013-10-29 01:15:00,
2013-10-28 18:20:00,54.9,50.8,29.74,SW,232,4.9,11.5,86,0.00,,,0.00,0.0,WeatherDisplay:10.37,2013-10-29 01:20:00,
2013-10-28 18:25:00,54.9,50.8,29.74,SW,220,6.8,10.4,86,0.00,,,0.00,0.0,WeatherDisplay:10.37,2013-10-29 01:25:00,
2013-10-28 18:30:00,54.9,51.1,29.74,SW,234,4.3,9.2,87,0.00,,,0.00,0.0,WeatherDisplay:10.37,2013-10-29 01:30:00,
2013-10-28 18:36:00,54.8,51.0,29.74,WSW,251,4.2,10.4,87,0.00,,,0.00,0.0,WeatherDisplay:10.37,2013-10-29 01:36:00,
2013-10-28 18:41:00,54.8,51.0,29.74,West,259,2.8,5.8,87,0.00,,,0.00,0.0,WeatherDisplay:10.37,2013-10-29 01:41:00,
2013-10-28 18:46:00,54.8,51.0,29.74,SSW,200,3.8,6.9,87,0.00,,,0.00,0.0,WeatherDisplay:10.37,2013-10-29 01:46:00,
2013-10-28 18:51:00,54.8,51.0,29.74,WSW,255,9.2,9.2,87,0.00,,,0.00,0.0,WeatherDisplay:10.37,2013-10-29 01:51:00,
2013-10-28 18:56:00,54.8,51.0,29.75,SW,230,6.8,13.8,87,0.00,,,0.00,0.0,WeatherDisplay:10.37,2013-10-29 01:56:00,
2013-10-28 19:01:00,54.8,51.0,29.74,SW,233,2.2,6.9,87,0.00,,,0.00,0.0,WeatherDisplay:10.37,2013-10-29 02:01:00,
2013-10-28 19:06:00,54.9,51.1,29.74,WSW,242,3.8,7.0,87,0.00,,,0.00,0.0,WeatherDisplay:10.37,2013-10-29 02:06:00,
2013-10-28 19:11:00,54.9,51.1,29.75,SW,235,3.8,6.9,87,0.00,,,0.00,0.0,WeatherDisplay:10.37,2013-10-29 02:11:00,
2013-10-28 19:16:00,55.0,51.2,29.75,West,260,1.8,5.0,87,0.00,,,0.00,0.0,WeatherDisplay:10.37,2013-10-29 02:16:00,
2013-10-28 19:21:00,55.1,51.6,29.75,WNW,285,3.5,5.8,88,0.00,,,0.00,0.0,WeatherDisplay:10.37,2013-10-29 02:21:00,
2013-10-28 19:26:00,55.1,51.3,29.75,WNW,287,3.6,6.9,87,0.00,,,0.00,0.0,WeatherDisplay:10.37,2013-10-29 02:26:00,
2013-10-28 19:31:00,55.1,51.3,29.75,West,265,3.6,5.8,87,0.00,,,0.00,0.0,WeatherDisplay:10.37,2013-10-29 02:31:00,
2013-10-28 19:36:00,55.1,51.3,29.75,North,10,6.3,10.4,87,0.00,,,0.00,0.0,WeatherDisplay:10.37,2013-10-29 02:36:00,
2013-10-28 19:41:00,55.0,50.9,29.75,North,10,6.7,11.5,86,0.00,,,0.00,0.0,WeatherDisplay:10.37,2013-10-29 02:41:00,
2013-10-28 19:46:00,55.0,50.9,29.76,WNW,302,3.0,6.9,86,0.00,,,0.00,0.0,WeatherDisplay:10.37,2013-10-29 02:46:00,
2013-10-28 19:51:00,55.0,50.9,29.76,SW,220,5.1,9.2,86,0.00,,,0.00,0.0,WeatherDisplay:10.37,2013-10-29 02:51:00,
2013-10-28 19:56:00,55.1,51.0,29.76,WSW,246,3.2,6.9,86,0.00,,,0.00,0.0,WeatherDisplay:10.37,2013-10-29 02:56:00,
2013-10-28 20:01:00,55.1,51.0,29.76,North,10,5.5,10.4,86,0.00,,,0.00,0.0,WeatherDisplay:10.37,2013-10-29 03:01:00,
2013-10-28 20:06:00,55.1,51.0,29.76,SW,217,3.8,5.8,86,0.00,,,0.00,0.0,WeatherDisplay:10.37,2013-10-29 03:06:00,
2013-10-28 20:11:00,55.1,51.0,29.76,West,267,0.5,3.5,86,0.00,,,0.00,0.0,WeatherDisplay:10.37,2013-10-29 03:11:00,
2013-10-28 20:16:00,55.1,51.0,29.76,SW,231,2.5,7.0,86,0.00,,,0.00,0.0,WeatherDisplay:10.37,2013-10-29 03:16:00,
2013-10-28 20:21:00,55.1,51.3,29.76,WSW,251,2.1,3.5,87,0.00,,,0.00,0.0,WeatherDisplay:10.37,2013-10-29 03:21:00,
2013-10-28 20:26:00,55.2,51.4,29.77,SW,222,4.1,6.9,87,0.00,,,0.00,0.0,WeatherDisplay:10.37,2013-10-29 03:26:00,
2013-10-28 20:31:00,55.2,51.4,29.77,WSW,238,6.5,9.2,87,0.00,,,0.00,0.0,WeatherDisplay:10.37,2013-10-29 03:31:00,
2013-10-28 20:36:00,55.2,51.4,29.77,WSW,238,5.1,6.9,87,0.00,,,0.00,0.0,WeatherDisplay:10.37,2013-10-29 03:36:00,
2013-10-28 20:41:00,55.2,51.1,29.77,SW,233,4.5,11.0,86,0.00,,,0.00,0.0,WeatherDisplay:10.37,2013-10-29 03:41:00,
2013-10-28 20:46:00,55.1,51.0,29.77,WSW,258,3.3,5.0,86,0.00,,,0.00,0.0,WeatherDisplay:10.37,2013-10-29 03:46:00,
2013-10-28 20:51:00,55.1,51.3,29.78,West,269,4.0,5.8,87,0.00,,,0.00,0.0,WeatherDisplay:10.37,2013-10-29 03:51:00,
2013-10-28 20:56:00,55.1,51.3,29.78,SW,215,3.0,10.4,87,0.00,,,0.00,0.0,WeatherDisplay:10.37,2013-10-29 03:56:00,
2013-10-28 21:01:00,55.1,51.0,29.78,WSW,254,2.7,8.1,86,0.00,,,0.00,0.0,WeatherDisplay:10.37,2013-10-29 04:01:00,
2013-10-28 21:02:00,55.1,51.0,29.78,WSW,254,1.0,3.5,86,0.00,,,0.00,0.0,WeatherDisplay:10.37,2013-10-29 04:02:00,
2013-10-28 21:07:00,55.0,51.2,29.78,SW,231,5.5,9.2,87,0.00,,,0.00,0.0,WeatherDisplay:10.37,2013-10-29 04:07:00,
2013-10-28 21:12:00,55.0,50.9,29.79,West,259,3.2,6.9,86,0.00,,,0.00,0.0,WeatherDisplay:10.37,2013-10-29 04:12:00,
2013-10-28 21:17:00,55.1,51.3,29.79,SW,233,1.8,4.0,87,0.00,,,0.00,0.0,WeatherDisplay:10.37,2013-10-29 04:17:00,
2013-10-28 21:22:00,55.1,51.0,29.79,SSW,202,4.6,6.0,86,0.00,,,0.00,0.0,WeatherDisplay:10.37,2013-10-29 04:22:00,
2013-10-28 21:27:00,55.1,51.0,29.79,WSW,238,5.1,8.1,86,0.00,,,0.00,0.0,WeatherDisplay:10.37,2013-10-29 04:27:00,
2013-10-28 21:32:00,55.1,51.0,29.80,WSW,256,2.4,4.6,86,0.00,,,0.00,0.0,WeatherDisplay:10.37,2013-10-29 04:32:00,
2013-10-28 21:37:00,55.1,51.0,29.80,SW,222,3.4,7.0,86,0.00,,,0.00,0.0,WeatherDisplay:10.37,2013-10-29 04:37:00,
2013-10-28 21:42:00,55.1,51.0,29.80,West,271,2.2,3.5,86,0.00,,,0.00,0.0,WeatherDisplay:10.37,2013-10-29 04:42:00,
2013-10-28 21:47:00,55.1,51.0,29.80,West,264,1.2,3.5,86,0.00,,,0.00,0.0,WeatherDisplay:10.37,2013-10-29 04:47:00,
2013-10-28 21:52:00,55.1,51.0,29.80,WSW,254,4.6,6.9,86,0.00,,,0.00,0.0,WeatherDisplay:10.37,2013-10-29 04:52:00,
2013-10-28 21:57:00,55.1,51.0,29.80,WSW,258,2.4,4.0,86,0.00,,,0.00,0.0,WeatherDisplay:10.37,2013-10-29 04:57:00,
2013-10-28 22:02:00,55.1,51.0,29.80,WSW,250,0.3,5.0,86,0.00,,,0.00,0.0,WeatherDisplay:10.37,2013-10-29 05:02:00,
2013-10-28 22:07:00,55.0,50.9,29.80,WSW,250,1.8,3.5,86,0.00,,,0.00,0.0,WeatherDisplay:10.37,2013-10-29 05:07:00,
2013-10-28 22:12:00,54.9,50.8,29.80,WSW,250,0.4,2.3,86,0.00,,,0.00,0.0,WeatherDisplay:10.37,2013-10-29 05:12:00,
2013-10-28 22:17:00,54.8,50.7,29.81,SW,228,1.7,3.5,86,0.00,,,0.00,0.0,WeatherDisplay:10.37,2013-10-29 05:17:00,
2013-10-28 22:22:00,54.7,50.6,29.81,SW,231,0.9,3.5,86,0.00,,,0.00,0.0,WeatherDisplay:10.37,2013-10-29 05:22:00,
2013-10-28 22:27:00,54.7,50.6,29.81,SW,231,3.0,4.0,86,0.00,,,0.00,0.0,WeatherDisplay:10.37,2013-10-29 05:27:00,
2013-10-28 22:32:00,54.6,50.8,29.81,SW,231,0.8,4.0,87,0.00,,,0.00,0.0,WeatherDisplay:10.37,2013-10-29 05:32:00,
2013-10-28 22:37:00,54.7,50.9,29.81,SW,231,2.8,3.5,87,0.00,,,0.00,0.0,WeatherDisplay:10.37,2013-10-29 05:37:00,
2013-10-28 22:42:00,54.7,50.9,29.81,SW,224,1.2,3.5,87,0.00,,,0.00,0.0,WeatherDisplay:10.37,2013-10-29 05:42:00,
2013-10-28 22:47:00,54.8,51.0,29.82,SSW,210,2.9,6.9,87,0.00,,,0.00,0.0,WeatherDisplay:10.37,2013-10-29 05:47:00,
2013-10-28 22:52:00,54.8,51.0,29.82,South,189,1.7,3.5,87,0.00,,,0.00,0.0,WeatherDisplay:10.37,2013-10-29 05:52:00,
2013-10-28 22:57:00,54.9,51.1,29.82,South,189,0.2,1.2,87,0.00,,,0.00,0.0,WeatherDisplay:10.37,2013-10-29 05:57:00,
2013-10-28 23:02:00,55.0,51.2,29.82,SW,215,4.8,6.9,87,0.00,,,0.00,0.0,WeatherDisplay:10.37,2013-10-29 06:02:00,
2013-10-28 23:07:00,55.1,51.3,29.82,South,188,3.1,3.5,87,0.00,,,0.00,0.0,WeatherDisplay:10.37,2013-10-29 06:07:00,
2013-10-28 23:12:00,55.2,51.4,29.82,South,188,1.4,2.3,87,0.00,,,0.00,0.0,WeatherDisplay:10.37,2013-10-29 06:12:00,
2013-10-28 23:17:00,55.2,51.1,29.83,SSW,194,2.7,3.5,86,0.00,,,0.00,0.0,WeatherDisplay:10.37,2013-10-29 06:17:00,
2013-10-28 23:22:00,55.2,51.1,29.83,SW,217,3.3,6.9,86,0.00,,,0.00,0.0,WeatherDisplay:10.37,2013-10-29 06:22:00,
2013-10-28 23:27:00,55.2,51.1,29.83,SW,227,5.7,6.0,86,0.00,,,0.00,0.0,WeatherDisplay:10.37,2013-10-29 06:27:00,
2013-10-28 23:32:00,55.1,51.0,29.83,SSW,208,5.0,6.0,86,0.00,,,0.00,0.0,WeatherDisplay:10.37,2013-10-29 06:32:00,
2013-10-28 23:37:00,55.1,51.0,29.83,SSW,211,4.9,9.2,86,0.00,,,0.00,0.0,WeatherDisplay:10.37,2013-10-29 06:37:00,
2013-10-28 23:42:00,55.2,51.1,29.83,SSW,194,4.6,7.0,86,0.00,,,0.00,0.0,WeatherDisplay:10.37,2013-10-29 06:42:00,
2013-10-28 23:47:00,55.1,51.0,29.83,SSW,206,3.6,5.8,86,0.00,,,0.00,0.0,WeatherDisplay:10.37,2013-10-29 06:47:00,
2013-10-28 23:52:00,55.3,51.5,29.83,SW,235,2.5,3.5,87,0.00,,,0.00,0.0,WeatherDisplay:10.37,2013-10-29 06:52:00,
2013-10-28 23:57:00,55.5,51.7,29.83,SW,224,4.7,6.9,87,0.00,,,0.00,0.0,WeatherDisplay:10.37,2013-10-29 06:57:00,